Time;durP1;ratioP1;P1;durP2;ratioP2;P2;SDS_P1;SDS_P2;PMS_P1;PMS_P2;Temp;Humidity;BMP_temperature;BMP_pressure;BME280_temperature;BME280_humidity;BME280_pressure;Samples;Min_cycle;Max_cycle;Signal;HPM_P1;HPM_P2
2023/09/07 00:00:33;;;;;;;7.80;3.80;;;;;;;22.54;33.99;101150.14;107642;1283;21986;-59
2023/09/07 00:02:59;;;;;;;7.90;4.00;;;;;;;22.48;34.11;101151.00;107654;1289;21992;-70
2023/09/07 00:05:26;;;;;;;9.00;3.50;;;;;;;22.50;34.15;101155.02;107640;1286;22166;-59
2023/09/07 00:07:51;;;;;;;6.10;3.70;;;;;;;22.45;34.26;101154.16;107975;1291;22000;-70
2023/09/07 00:10:17;;;;;;;8.20;4.20;;;;;;;22.41;34.11;101152.75;107741;1291;21992;-59
2023/09/07 00:12:43;;;;;;;9.70;4.60;;;;;;;22.36;34.26;101149.59;107662;1284;22028;-59
2023/09/07 00:15:10;;;;;;;7.50;4.00;;;;;;;22.32;34.21;101151.56;107656;1283;22442;-59
2023/09/07 00:17:36;;;;;;;7.20;4.10;;;;;;;22.31;34.31;101151.27;107688;1291;22004;-59
2023/09/07 00:20:10;;;;;;;10.70;4.60;;;;;;;22.28;34.33;101156.05;107679;1287;22017;-61
2023/09/07 00:22:36;;;;;;;10.80;4.60;;;;;;;22.24;34.34;101154.27;107781;1291;21998;-58
2023/09/07 00:25:03;;;;;;;8.90;4.50;;;;;;;22.23;34.50;101154.17;107910;1291;22462;-70
2023/09/07 00:27:29;;;;;;;8.40;4.00;;;;;;;22.22;34.59;101151.16;107882;1285;22000;-58
2023/09/07 00:29:55;;;;;;;6.80;4.50;;;;;;;22.21;34.59;101150.31;107817;1281;22097;-58
2023/09/07 00:32:21;;;;;;;8.10;4.30;;;;;;;22.19;34.64;101147.94;107772;1287;22108;-59
2023/09/07 00:34:46;;;;;;;5.30;3.70;;;;;;;22.15;34.66;101145.59;107794;1283;21993;-71
2023/09/07 00:37:12;;;;;;;7.70;3.90;;;;;;;22.11;34.76;101144.86;107799;1287;21990;-58
2023/09/07 00:39:37;;;;;;;7.10;3.90;;;;;;;22.10;34.75;101143.50;107681;1286;21995;-59
2023/09/07 00:42:04;;;;;;;8.30;3.80;;;;;;;22.08;34.82;101142.15;107699;1286;21993;-58
2023/09/07 00:44:29;;;;;;;9.90;4.20;;;;;;;22.06;34.82;101141.22;107632;1286;21993;-59
2023/09/07 00:46:56;;;;;;;7.00;4.30;;;;;;;22.03;34.75;101144.03;107622;1291;21999;-71
2023/09/07 00:49:22;;;;;;;5.50;3.70;;;;;;;21.98;34.83;101146.45;107836;1291;22588;-70
2023/09/07 00:51:47;;;;;;;10.40;4.00;;;;;;;21.93;34.95;101150.76;107778;1290;21996;-70
2023/09/07 00:54:13;;;;;;;9.80;4.30;;;;;;;21.90;34.92;101148.96;107805;1286;22001;-70
2023/09/07 00:56:39;;;;;;;6.10;4.00;;;;;;;21.87;34.98;101149.27;107762;1292;22009;-58
2023/09/07 00:59:04;;;;;;;7.70;4.30;;;;;;;21.85;35.12;101147.93;107813;1292;22086;-58
2023/09/07 01:01:31;;;;;;;10.00;4.50;;;;;;;21.84;35.09;101147.98;107736;1283;21998;-58
2023/09/07 01:03:57;;;;;;;6.10;4.10;;;;;;;21.82;35.19;101148.25;107800;1292;21993;-58
2023/09/07 01:06:29;;;;;;;7.80;4.40;;;;;;;21.80;35.27;101147.27;107755;1292;22000;-70
2023/09/07 01:08:58;;;;;;;5.20;3.50;;;;;;;21.78;35.20;101144.89;107764;1292;21990;-58
2023/09/07 01:11:24;;;;;;;8.10;4.00;;;;;;;21.76;35.32;101147.65;107796;1292;21994;-57
2023/09/07 01:13:52;;;;;;;7.60;4.60;;;;;;;21.74;35.40;101146.86;107810;1287;22002;-69
2023/09/07 01:16:17;;;;;;;7.10;4.50;;;;;;;21.71;35.46;101147.16;107797;1290;21993;-70
2023/09/07 01:18:44;;;;;;;6.80;4.80;;;;;;;21.67;35.54;101148.39;107836;1289;21997;-59
2023/09/07 01:21:10;;;;;;;7.70;4.30;;;;;;;21.66;35.69;101148.64;107646;1287;21996;-70
2023/09/07 01:23:36;;;;;;;8.20;4.50;;;;;;;21.66;35.81;101156.11;107865;1291;22008;-59
2023/09/07 01:26:03;;;;;;;7.30;4.60;;;;;;;21.67;35.86;101152.86;107837;1290;21996;-59
2023/09/07 01:28:28;;;;;;;7.70;4.30;;;;;;;21.68;35.91;101156.91;107674;1286;21995;-70
2023/09/07 01:30:54;;;;;;;7.70;4.60;;;;;;;21.69;35.91;101154.93;107794;1291;21998;-59
2023/09/07 01:33:20;;;;;;;6.80;4.40;;;;;;;21.64;35.93;101152.84;107799;1283;21993;-58
2023/09/07 01:35:45;;;;;;;8.30;4.50;;;;;;;21.59;36.08;101156.47;107651;1280;22013;-58
2023/09/07 01:38:11;;;;;;;9.00;4.30;;;;;;;21.56;36.23;101157.47;107833;1289;21994;-70
2023/09/07 01:40:36;;;;;;;7.20;4.40;;;;;;;21.56;36.24;101155.87;107639;1284;21997;-58
2023/09/07 01:43:02;;;;;;;9.20;4.80;;;;;;;21.54;36.20;101151.83;107671;1289;22462;-70
2023/09/07 01:45:28;;;;;;;6.90;4.50;;;;;;;21.53;36.40;101149.20;107633;1291;21999;-71
2023/09/07 01:47:54;;;;;;;7.90;4.90;;;;;;;21.52;36.53;101148.55;107825;1286;21993;-70
2023/09/07 01:50:19;;;;;;;9.00;4.40;;;;;;;21.50;36.51;101148.44;107636;1290;21992;-59
2023/09/07 01:52:47;;;;;;;9.80;5.00;;;;;;;21.48;36.50;101147.83;107797;1291;21990;-64
2023/09/07 01:55:13;;;;;;;6.60;4.70;;;;;;;21.46;36.55;101145.23;107696;1286;21990;-71
2023/09/07 01:57:39;;;;;;;9.90;4.80;;;;;;;21.45;36.62;101143.13;107054;1287;1003025;-58
2023/09/07 02:00:05;;;;;;;6.90;4.40;;;;;;;21.44;36.58;101141.39;107652;1286;21993;-71
2023/09/07 02:02:32;;;;;;;7.10;4.60;;;;;;;21.42;36.65;101140.95;107835;1284;21999;-71
2023/09/07 02:04:58;;;;;;;7.30;4.90;;;;;;;21.40;36.59;101141.60;107708;1283;22000;-70
2023/09/07 02:07:23;;;;;;;14.10;5.00;;;;;;;21.38;36.72;101143.79;107643;1289;21999;-58
2023/09/07 02:09:49;;;;;;;8.90;4.90;;;;;;;21.37;36.79;101144.04;107631;1283;21990;-58
2023/09/07 02:12:15;;;;;;;9.70;5.40;;;;;;;21.36;36.85;101148.39;107663;1281;21980;-59
2023/09/07 02:14:41;;;;;;;7.40;4.50;;;;;;;21.33;36.89;101148.34;107648;1291;21996;-60
2023/09/07 02:17:06;;;;;;;7.50;4.70;;;;;;;21.27;36.88;101145.54;107694;1286;22030;-59
2023/09/07 02:19:32;;;;;;;7.50;4.60;;;;;;;21.22;37.04;101147.20;107619;1289;22159;-59
2023/09/07 02:21:58;;;;;;;7.30;4.50;;;;;;;21.16;37.03;101149.25;107641;1291;21980;-59
2023/09/07 02:24:23;;;;;;;11.00;4.60;;;;;;;21.13;37.17;101148.70;107643;1286;21999;-58
2023/09/07 02:26:49;;;;;;;8.30;5.00;;;;;;;21.10;37.26;101147.92;107649;1286;21996;-71
2023/09/07 02:29:14;;;;;;;7.70;5.00;;;;;;;21.08;37.30;101147.67;107643;1286;22926;-59
2023/09/07 02:31:40;;;;;;;8.80;4.90;;;;;;;21.04;37.24;101148.52;107654;1291;22015;-59
2023/09/07 02:34:06;;;;;;;7.40;4.90;;;;;;;21.02;37.24;101147.40;106967;1286;1002504;-71
2023/09/07 02:36:34;;;;;;;10.30;5.50;;;;;;;20.99;37.41;101149.30;107661;1291;22003;-71
2023/09/07 02:38:59;;;;;;;9.80;5.20;;;;;;;20.96;37.46;101149.80;107808;1286;22083;-59
2023/09/07 02:41:25;;;;;;;10.90;5.20;;;;;;;20.91;37.53;101146.77;107837;1286;21995;-59
2023/09/07 02:43:51;;;;;;;9.00;5.40;;;;;;;20.87;37.51;101147.48;107754;1286;22003;-59
2023/09/07 02:46:17;;;;;;;9.70;5.00;;;;;;;20.83;37.72;101147.11;107921;1286;21992;-59
2023/09/07 02:48:42;;;;;;;12.60;5.00;;;;;;;20.78;37.66;101152.13;107938;1291;21993;-70
2023/09/07 02:51:08;;;;;;;10.70;4.90;;;;;;;20.75;37.68;101155.44;107632;1288;22248;-58
2023/09/07 02:53:33;;;;;;;11.10;5.10;;;;;;;20.71;37.64;101150.66;107864;1286;22042;-58
2023/09/07 02:56:01;;;;;;;10.10;5.70;;;;;;;20.65;37.78;101153.91;107868;1291;22053;-58
2023/09/07 02:58:27;;;;;;;9.50;4.90;;;;;;;20.62;37.79;101155.27;107594;1291;21989;-58
2023/09/07 03:00:53;;;;;;;10.40;5.10;;;;;;;20.60;37.99;101151.62;107614;1283;22194;-71
2023/09/07 03:03:18;;;;;;;12.90;6.10;;;;;;;20.60;38.18;101152.86;107608;1291;21992;-69
2023/09/07 03:05:45;;;;;;;8.40;4.60;;;;;;;20.62;38.15;101149.92;107619;1285;23605;-70
2023/09/07 03:08:11;;;;;;;9.00;5.70;;;;;;;20.64;38.39;101148.24;107649;1291;21989;-57
2023/09/07 03:10:39;;;;;;;10.50;4.70;;;;;;;20.68;38.33;101145.80;107606;1286;21990;-57
2023/09/07 03:13:06;;;;;;;11.20;4.90;;;;;;;20.72;38.28;101149.55;107647;1287;22160;-58
2023/09/07 03:15:33;;;;;;;10.50;5.00;;;;;;;20.76;38.35;101151.67;107821;1286;21995;-69
2023/09/07 03:18:00;;;;;;;7.40;5.40;;;;;;;20.79;38.38;101151.22;108022;1285;22008;-59
2023/09/07 03:20:26;;;;;;;8.70;5.20;;;;;;;20.79;38.44;101151.01;107784;1291;22037;-58
2023/09/07 03:22:52;;;;;;;7.60;4.90;;;;;;;20.80;38.52;101154.37;107652;1283;21992;-57
2023/09/07 03:25:17;;;;;;;11.80;5.20;;;;;;;20.80;38.47;101154.36;107651;1286;22031;-58
2023/09/07 03:27:43;;;;;;;11.70;5.00;;;;;;;20.81;38.60;101153.97;107634;1290;21992;-58
2023/09/07 03:30:09;;;;;;;14.80;5.40;;;;;;;20.83;38.60;101155.52;107631;1283;21990;-64
2023/09/07 03:32:35;;;;;;;14.80;6.20;;;;;;;20.84;38.58;101157.79;107739;1289;21989;-70
2023/09/07 03:35:03;;;;;;;10.90;5.70;;;;;;;20.84;38.77;101155.64;107633;1290;21998;-71
2023/09/07 03:37:28;;;;;;;19.00;6.10;;;;;;;20.85;38.75;101157.20;107657;1280;21989;-58
2023/09/07 03:39:55;;;;;;;19.20;6.00;;;;;;;20.87;38.74;101161.94;107802;1289;21989;-57
2023/09/07 03:42:22;;;;;;;8.00;4.80;;;;;;;20.88;38.86;101164.77;107649;1286;21977;-67
2023/09/07 03:44:47;;;;;;;12.10;4.90;;;;;;;20.88;39.01;101167.98;107674;1286;21992;-57
2023/09/07 03:47:13;;;;;;;15.70;5.10;;;;;;;20.88;38.94;101170.65;107638;1280;22036;-58
2023/09/07 03:49:39;;;;;;;7.80;4.50;;;;;;;20.90;39.01;101174.28;107648;1290;21992;-70
2023/09/07 03:52:04;;;;;;;9.90;4.90;;;;;;;20.94;39.09;101175.01;107887;1286;23650;-58
2023/09/07 03:54:31;;;;;;;11.20;4.80;;;;;;;21.03;38.99;101178.73;107657;1286;22033;-58
2023/09/07 03:56:57;;;;;;;8.80;4.70;;;;;;;21.14;38.96;101183.61;107649;1283;22050;-59
2023/09/07 03:59:22;;;;;;;11.90;5.50;;;;;;;21.20;39.00;101186.38;107623;1286;22094;-70
2023/09/07 04:01:48;;;;;;;10.10;4.60;;;;;;;21.26;38.98;101185.23;107608;1287;22024;-71
2023/09/07 04:04:14;;;;;;;11.20;4.80;;;;;;;21.30;39.09;101183.45;107629;1291;21987;-58
2023/09/07 04:06:40;;;;;;;11.90;4.60;;;;;;;21.35;39.01;101184.29;107989;1286;21994;-71
2023/09/07 04:09:06;;;;;;;10.90;4.70;;;;;;;21.40;38.99;101185.32;107596;1286;22041;-71
2023/09/07 04:11:31;;;;;;;9.00;4.40;;;;;;;21.45;39.07;101182.78;107724;1290;22688;-72
2023/09/07 04:13:57;;;;;;;10.30;5.00;;;;;;;21.49;39.06;101179.40;107575;1290;23641;-70
2023/09/07 04:16:23;;;;;;;8.50;4.20;;;;;;;21.53;39.12;101179.55;107584;1283;22000;-58
2023/09/07 04:18:48;;;;;;;11.50;4.80;;;;;;;21.59;39.22;101181.10;107577;1291;21994;-58
2023/09/07 04:21:14;;;;;;;7.70;4.10;;;;;;;21.65;39.22;101181.73;107597;1286;21996;-72
2023/09/07 04:23:40;;;;;;;9.80;4.30;;;;;;;21.74;39.29;101183.61;107670;1286;21996;-57
2023/09/07 04:26:09;;;;;;;8.50;4.30;;;;;;;21.83;39.30;101182.32;107631;1289;22419;-71
2023/09/07 04:28:51;;;;;;;7.80;4.40;;;;;;;21.92;39.26;101181.90;107644;1291;21992;-72
2023/09/07 04:31:16;;;;;;;8.00;4.20;;;;;;;22.00;39.32;101179.20;107642;1291;22028;-57
2023/09/07 04:33:58;;;;;;;8.90;4.40;;;;;;;22.10;39.38;101182.48;107656;1290;22000;-71
2023/09/07 04:36:23;;;;;;;22.00;5.40;;;;;;;22.20;39.23;101180.61;107647;1291;22029;-59
2023/09/07 04:38:49;;;;;;;11.90;4.60;;;;;;;22.29;39.27;101180.86;107625;1286;21991;-58
2023/09/07 04:41:15;;;;;;;9.50;4.40;;;;;;;22.39;39.29;101181.44;107663;1286;21999;-58
2023/09/07 04:43:44;;;;;;;7.90;4.50;;;;;;;22.49;39.12;101176.54;107629;1286;21995;-58
2023/09/07 04:46:10;;;;;;;9.20;4.20;;;;;;;22.57;39.00;101182.21;107668;1284;21990;-58
2023/09/07 04:48:39;;;;;;;7.80;4.10;;;;;;;22.65;39.04;101180.21;107637;1291;22006;-57
2023/09/07 04:51:05;;;;;;;7.30;4.60;;;;;;;22.73;39.07;101183.38;107682;1283;21993;-70
2023/09/07 04:53:36;;;;;;;9.10;4.60;;;;;;;22.81;39.12;101183.52;108235;1286;22001;-61
2023/09/07 04:56:02;;;;;;;11.50;4.20;;;;;;;22.88;38.97;101183.70;107669;1291;22001;-70
2023/09/07 04:58:28;;;;;;;8.00;4.00;;;;;;;22.97;39.12;101183.73;107735;1291;22001;-58
2023/09/07 05:00:54;;;;;;;8.30;4.70;;;;;;;23.08;39.02;101180.13;107735;1283;22462;-70
2023/09/07 05:03:19;;;;;;;10.60;4.60;;;;;;;23.20;38.82;101179.92;108060;1286;21989;-57
2023/09/07 05:05:50;;;;;;;10.70;4.40;;;;;;;23.33;39.02;101178.19;108084;1288;21970;-58
2023/09/07 05:08:16;;;;;;;10.70;4.60;;;;;;;23.48;38.94;101176.46;107905;1289;21998;-57
2023/09/07 05:10:42;;;;;;;7.10;4.10;;;;;;;23.65;38.95;101179.88;107829;1283;21998;-70
2023/09/07 05:13:08;;;;;;;7.10;4.20;;;;;;;23.81;38.89;101181.16;107842;1289;22185;-69
2023/09/07 05:15:33;;;;;;;9.00;4.50;;;;;;;23.96;38.63;101180.14;107892;1289;21997;-58
2023/09/07 05:17:59;;;;;;;7.80;4.10;;;;;;;24.11;38.71;101180.05;107852;1289;21990;-58
2023/09/07 05:20:25;;;;;;;5.90;3.90;;;;;;;24.28;38.59;101178.17;107874;1283;22455;-69
2023/09/07 05:22:52;;;;;;;6.80;4.40;;;;;;;24.49;38.50;101178.80;107949;1289;21992;-59
2023/09/07 05:25:20;;;;;;;8.30;4.40;;;;;;;24.68;38.38;101179.27;107852;1283;21995;-69
2023/09/07 05:27:45;;;;;;;6.20;4.00;;;;;;;24.87;38.26;101180.35;107858;1283;21995;-69
2023/09/07 05:30:11;;;;;;;10.70;4.10;;;;;;;25.05;38.10;101181.23;107890;1283;22455;-70
2023/09/07 05:32:37;;;;;;;7.00;3.80;;;;;;;25.28;38.03;101180.61;107922;1283;22004;-70
2023/09/07 05:35:04;;;;;;;6.70;3.90;;;;;;;25.48;37.98;101181.54;107934;1287;22005;-71
2023/09/07 05:37:30;;;;;;;7.50;3.70;;;;;;;25.67;37.80;101183.77;107887;1283;22035;-58
2023/09/07 05:39:55;;;;;;;6.70;3.70;;;;;;;25.86;37.73;101186.48;107908;1280;22015;-70
2023/09/07 05:42:21;;;;;;;5.80;3.70;;;;;;;26.02;37.45;101191.94;107831;1289;22196;-62
2023/09/07 05:44:46;;;;;;;6.90;3.80;;;;;;;26.15;37.31;101190.63;107845;1289;21992;-70
2023/09/07 05:47:12;;;;;;;5.90;3.50;;;;;;;26.27;37.15;101186.98;107860;1289;21994;-71
2023/09/07 05:49:38;;;;;;;7.20;3.60;;;;;;;26.37;37.05;101191.89;107880;1289;21997;-71
2023/09/07 05:52:04;;;;;;;6.10;3.50;;;;;;;26.47;36.86;101193.05;107887;1289;22105;-71
2023/09/07 05:54:29;;;;;;;5.60;3.90;;;;;;;26.57;36.84;101194.35;107860;1289;21992;-70
2023/09/07 05:56:55;;;;;;;5.80;3.80;;;;;;;26.68;36.72;101193.94;107835;1289;21993;-70
2023/09/07 05:59:21;;;;;;;7.30;4.00;;;;;;;26.80;36.63;101192.61;107858;1289;23411;-70
2023/09/07 06:01:46;;;;;;;7.10;3.70;;;;;;;26.88;36.44;101194.48;107863;1289;22006;-58
2023/09/07 06:04:12;;;;;;;7.70;3.80;;;;;;;26.92;36.33;101197.26;107826;1289;21988;-70
2023/09/07 06:06:38;;;;;;;11.90;4.10;;;;;;;27.04;36.28;101199.85;107942;1289;22024;-58
2023/09/07 06:09:04;;;;;;;8.40;4.50;;;;;;;27.13;36.09;101195.81;107976;1283;21991;-70
2023/09/07 06:11:31;;;;;;;6.90;4.10;;;;;;;27.21;35.93;101194.72;108084;1288;23720;-58
2023/09/07 06:13:58;;;;;;;7.10;3.90;;;;;;;27.37;36.05;101200.60;108131;1280;21993;-59
2023/09/07 06:16:23;;;;;;;5.60;3.70;;;;;;;27.60;36.09;101198.31;108095;1283;21990;-59
2023/09/07 06:18:49;;;;;;;6.40;3.80;;;;;;;27.83;35.96;101197.94;108059;1288;21997;-58
2023/09/07 06:21:15;;;;;;;6.40;4.00;;;;;;;28.01;35.68;101200.60;108098;1284;21986;-64
2023/09/07 06:23:40;;;;;;;7.20;5.20;;;;;;;28.16;35.74;101200.99;108056;1288;22180;-58
2023/09/07 06:26:06;;;;;;;9.00;5.10;;;;;;;28.29;35.50;101200.55;108069;1283;22007;-58
2023/09/07 06:28:32;;;;;;;12.10;4.40;;;;;;;28.35;35.44;101198.66;108028;1280;22010;-65
2023/09/07 06:30:57;;;;;;;9.20;4.10;;;;;;;28.44;35.22;101199.50;108063;1283;22000;-70
2023/09/07 06:33:23;;;;;;;10.90;4.30;;;;;;;28.51;35.14;101200.54;108027;1283;21987;-58
2023/09/07 06:35:48;;;;;;;5.90;3.80;;;;;;;28.56;35.03;101197.67;108071;1284;21989;-70
2023/09/07 06:38:14;;;;;;;7.40;3.80;;;;;;;28.58;34.85;101195.73;107837;1286;23709;-58
2023/09/07 06:40:40;;;;;;;8.70;4.00;;;;;;;28.59;34.71;101195.80;108073;1288;21990;-70
2023/09/07 06:43:05;;;;;;;8.60;4.20;;;;;;;28.62;34.60;101197.23;108090;1286;21999;-70
2023/09/07 06:45:35;;;;;;;8.80;3.80;;;;;;;28.62;34.59;101203.70;108037;1283;21999;-59
2023/09/07 06:48:02;;;;;;;;;;;;;;;28.65;34.65;101202.08;108111;1288;21974;-59
2023/09/07 06:50:28;;;;;;;9.00;3.70;;;;;;;28.68;34.74;101206.33;108040;1283;22031;-70
2023/09/07 06:52:54;;;;;;;8.90;4.10;;;;;;;28.72;34.47;101203.48;108070;1286;21990;-71
2023/09/07 06:55:20;;;;;;;6.70;3.80;;;;;;;28.76;34.54;101202.10;108048;1286;21999;-58
2023/09/07 06:57:45;;;;;;;7.60;4.40;;;;;;;28.86;34.59;101201.42;108023;1280;21968;-65
2023/09/07 07:00:12;;;;;;;7.30;3.80;;;;;;;28.96;34.57;101197.73;108063;1286;21989;-58
2023/09/07 07:02:38;;;;;;;6.30;4.00;;;;;;;29.12;34.71;101199.59;108062;1283;21992;-71
2023/09/07 07:05:04;;;;;;;7.80;3.60;;;;;;;29.37;34.50;101200.52;108053;1283;22020;-69
2023/09/07 07:07:30;;;;;;;10.80;3.80;;;;;;;29.73;34.60;101199.83;108127;1286;22028;-59
2023/09/07 07:09:56;;;;;;;7.20;3.30;;;;;;;30.18;34.25;101198.20;108060;1288;21994;-59
2023/09/07 07:12:22;;;;;;;9.20;3.30;;;;;;;30.60;34.12;101196.41;108069;1288;21990;-59
2023/09/07 07:14:47;;;;;;;5.80;3.00;;;;;;;30.96;33.85;101195.40;108053;1288;22005;-59
2023/09/07 07:17:13;;;;;;;7.10;3.00;;;;;;;31.24;33.64;101192.83;108061;1288;22001;-59
2023/09/07 07:19:39;;;;;;;5.00;2.90;;;;;;;31.48;33.50;101190.89;108089;1276;21984;-71
2023/09/07 07:22:04;;;;;;;5.30;3.10;;;;;;;31.76;33.21;101189.35;108067;1288;22035;-58
2023/09/07 07:24:30;;;;;;;6.00;2.90;;;;;;;32.04;33.15;101187.37;108043;1286;21988;-71
2023/09/07 07:26:55;;;;;;;7.90;4.30;;;;;;;32.33;32.85;101180.76;107865;1288;21995;-59
2023/09/07 07:29:21;;;;;;;7.60;3.10;;;;;;;32.58;32.58;101181.38;108033;1280;22262;-69
2023/09/07 07:31:46;;;;;;;15.10;3.60;;;;;;;32.86;32.24;101181.89;108078;1283;22460;-59
2023/09/07 07:34:13;;;;;;;6.70;3.00;;;;;;;33.00;31.88;101182.00;108090;1288;21986;-70
2023/09/07 07:36:38;;;;;;;4.70;2.70;;;;;;;33.05;31.50;101182.95;108065;1283;21977;-69
2023/09/07 07:39:06;;;;;;;5.10;2.90;;;;;;;33.05;31.36;101179.94;108099;1287;22027;-70
2023/09/07 07:41:32;;;;;;;6.60;3.40;;;;;;;33.13;31.34;101179.56;108140;1283;23062;-60
2023/09/07 07:43:58;;;;;;;6.60;2.60;;;;;;;33.21;31.07;101179.98;108086;1288;22178;-59
2023/09/07 07:46:24;;;;;;;4.90;2.20;;;;;;;33.32;31.14;101179.88;108071;1288;21992;-71
2023/09/07 07:48:50;;;;;;;3.00;2.20;;;;;;;33.50;31.46;101178.71;107859;1288;23661;-59
2023/09/07 07:51:15;;;;;;;5.30;2.10;;;;;;;33.81;31.18;101177.85;108066;1288;21990;-59
2023/09/07 07:53:41;;;;;;;6.40;2.10;;;;;;;34.01;30.78;101177.95;108095;1287;21953;-70
2023/09/07 07:56:15;;;;;;;5.80;2.80;;;;;;;34.12;30.73;101178.00;108104;1288;22078;-59
2023/09/07 07:58:40;;;;;;;10.40;2.70;;;;;;;34.29;30.88;101176.09;108106;1288;22102;-71
2023/09/07 08:01:16;;;;;;;6.50;2.80;;;;;;;34.51;30.47;101173.29;108109;1286;21983;-71
2023/09/07 08:03:42;;;;;;;4.30;2.00;;;;;;;34.72;30.28;101173.93;108080;1283;21984;-59
2023/09/07 08:06:07;;;;;;;5.60;2.40;;;;;;;34.88;30.00;101171.16;108133;1288;21992;-67
2023/09/07 08:08:33;;;;;;;6.00;2.20;;;;;;;35.10;30.07;101163.21;108039;1283;23769;-60
2023/09/07 08:11:00;;;;;;;6.30;2.50;;;;;;;35.39;29.89;101166.29;108061;1280;22024;-62
2023/09/07 08:13:25;;;;;;;8.10;2.40;;;;;;;35.51;29.60;101165.83;108169;1288;21989;-72
2023/09/07 08:15:51;;;;;;;4.90;1.80;;;;;;;35.54;29.33;101165.49;108091;1283;21992;-59
2023/09/07 08:18:16;;;;;;;4.80;2.00;;;;;;;35.47;28.64;101162.92;108089;1280;21988;-71
2023/09/07 08:20:42;;;;;;;4.30;2.10;;;;;;;35.40;28.86;101162.11;108089;1288;21995;-59
2023/09/07 08:23:10;;;;;;;6.30;1.50;;;;;;;35.38;28.42;101159.60;108063;1288;22063;-59
2023/09/07 08:25:36;;;;;;;6.60;2.10;;;;;;;35.38;28.57;101161.59;108053;1280;21989;-59
2023/09/07 08:28:05;;;;;;;4.20;2.00;;;;;;;35.43;28.59;101164.59;108066;1288;22450;-59
2023/09/07 08:30:31;;;;;;;3.90;1.70;;;;;;;35.49;28.50;101155.90;108087;1286;22205;-70
2023/09/07 08:32:57;;;;;;;3.00;1.70;;;;;;;35.63;28.35;101155.95;108068;1282;21990;-69
2023/09/07 08:35:26;;;;;;;5.80;2.40;;;;;;;35.72;28.16;101150.40;108099;1288;21990;-69
2023/09/07 08:37:53;;;;;;;4.40;1.90;;;;;;;35.79;27.73;101151.14;108091;1283;21990;-59
2023/09/07 08:40:19;;;;;;;4.30;1.80;;;;;;;35.74;27.67;101150.55;108096;1288;23699;-70
2023/09/07 08:42:45;;;;;;;3.20;2.00;;;;;;;35.80;27.95;101150.04;108088;1288;21987;-70
2023/09/07 08:45:11;;;;;;;5.60;2.10;;;;;;;35.97;27.98;101145.45;108114;1283;21997;-59
2023/09/07 08:47:37;;;;;;;4.20;2.10;;;;;;;36.17;27.76;101144.66;108082;1288;21999;-60
2023/09/07 08:50:06;;;;;;;4.10;2.20;;;;;;;36.33;28.01;101138.79;108106;1288;22027;-71
2023/09/07 08:52:32;;;;;;;4.20;1.90;;;;;;;36.64;27.73;101138.39;108137;1280;23008;-61
2023/09/07 08:55:00;;;;;;;6.20;2.30;;;;;;;37.01;27.70;101130.80;108066;1279;22028;-69
2023/09/07 08:57:27;;;;;;;6.00;2.20;;;;;;;37.28;26.67;101133.98;107904;1288;22177;-71
2023/09/07 08:59:52;;;;;;;4.80;2.30;;;;;;;37.26;26.74;101132.39;108082;1288;21994;-69
2023/09/07 09:02:18;;;;;;;7.00;2.40;;;;;;;37.25;26.76;101133.57;107825;1288;23623;-59
2023/09/07 09:04:44;;;;;;;4.50;2.30;;;;;;;37.22;26.64;101129.84;108116;1288;21997;-70
2023/09/07 09:07:09;;;;;;;5.00;2.10;;;;;;;37.09;26.35;101127.44;108101;1283;21998;-70
2023/09/07 09:09:35;;;;;;;5.80;2.60;;;;;;;36.91;26.40;101120.70;108090;1288;22460;-69
2023/09/07 09:12:10;;;;;;;4.50;2.50;;;;;;;37.01;26.78;101116.32;108122;1288;21993;-59
2023/09/07 09:14:36;;;;;;;3.30;2.00;;;;;;;37.33;27.01;101120.23;108077;1283;21990;-60
2023/09/07 09:17:02;;;;;;;3.50;1.90;;;;;;;37.74;26.62;101113.27;108064;1288;22761;-60
2023/09/07 09:19:35;;;;;;;6.00;1.70;;;;;;;37.97;26.24;101118.21;108061;1288;23718;-69
2023/09/07 09:22:01;;;;;;;4.90;2.30;;;;;;;38.09;25.61;101121.52;107829;1286;21991;-59
2023/09/07 09:24:26;;;;;;;28.20;4.20;;;;;;;38.00;25.08;101121.96;108073;1288;22057;-69
2023/09/07 09:26:52;;;;;;;12.60;2.40;;;;;;;37.64;25.24;101123.19;107953;1287;23631;-60
2023/09/07 09:29:23;;;;;;;6.70;2.40;;;;;;;37.18;24.83;101124.98;108060;1286;21997;-71
2023/09/07 09:31:48;;;;;;;9.50;2.70;;;;;;;36.85;24.88;101122.30;108082;1288;21986;-60
2023/09/07 09:34:15;;;;;;;7.90;2.60;;;;;;;36.75;25.23;101121.95;107778;1288;21987;-70
2023/09/07 09:36:42;;;;;;;7.40;2.10;;;;;;;36.69;25.36;101117.53;108035;1283;21995;-69
2023/09/07 09:39:09;;;;;;;2.20;1.50;;;;;;;36.53;25.31;101111.81;108075;1288;21999;-59
2023/09/07 09:41:34;;;;;;;4.50;1.90;;;;;;;36.37;25.59;101106.29;108047;1287;21992;-58
2023/09/07 09:44:02;;;;;;;5.00;2.20;;;;;;;36.30;25.67;101106.05;108044;1280;22168;-70
2023/09/07 09:46:28;;;;;;;4.90;1.80;;;;;;;36.28;25.76;101101.52;108098;1282;22003;-59
2023/09/07 09:48:54;;;;;;;2.90;1.70;;;;;;;36.31;25.52;101095.47;108032;1287;21989;-71
2023/09/07 09:51:20;;;;;;;9.50;2.10;;;;;;;36.39;25.27;101097.05;107789;1285;21983;-69
2023/09/07 09:53:45;;;;;;;3.50;2.00;;;;;;;36.45;25.41;101098.48;107718;1288;23715;-59
2023/09/07 09:56:11;;;;;;;4.80;2.10;;;;;;;36.51;25.51;101096.95;107800;1288;22047;-69
2023/09/07 09:58:36;;;;;;;3.00;1.90;;;;;;;36.55;25.66;101092.05;107979;1288;23631;-59
2023/09/07 10:01:05;;;;;;;4.10;2.00;;;;;;;36.65;25.34;101088.88;107986;1288;21988;-60
2023/09/07 10:03:32;;;;;;;4.20;1.80;;;;;;;36.58;25.11;101084.95;107707;1288;22184;-68
2023/09/07 10:06:27;;;;;;;4.50;2.20;;;;;;;36.58;25.27;101081.13;107979;1287;23686;-58
2023/09/07 10:08:59;;;;;;;6.80;2.60;;;;;;;36.75;25.09;101079.55;108003;1287;23648;-60
2023/09/07 10:11:35;;;;;;;7.20;2.10;;;;;;;37.01;25.13;101084.46;108158;1288;23742;-68
2023/09/07 10:14:03;;;;;;;4.20;2.10;;;;;;;37.17;25.10;101083.62;108052;1287;22005;-58
2023/09/07 10:16:43;;;;;;;4.40;2.00;;;;;;;37.17;24.73;101085.65;109499;1283;21990;-69
2023/09/07 10:19:19;;;;;;;3.60;1.90;;;;;;;36.97;24.67;101082.44;107881;1288;21992;-59
2023/09/07 10:21:45;;;;;;;4.60;1.70;;;;;;;36.90;25.08;101079.67;107983;1286;21995;-58
2023/09/07 10:24:10;;;;;;;5.60;2.10;;;;;;;37.03;24.68;101080.48;108057;1286;21994;-59
2023/09/07 10:26:36;;;;;;;3.30;2.10;;;;;;;37.19;24.49;101082.69;108038;1283;21998;-59
2023/09/07 10:29:03;;;;;;;4.10;2.00;;;;;;;37.35;24.71;101084.84;107839;1288;21988;-60
2023/09/07 10:31:32;;;;;;;2.90;2.00;;;;;;;37.57;24.72;101078.61;108011;1288;21990;-67
2023/09/07 10:34:12;;;;;;;4.20;2.20;;;;;;;37.73;24.48;101079.35;108120;1280;21990;-67
2023/09/07 10:36:37;;;;;;;6.70;2.40;;;;;;;37.55;24.29;101075.95;108035;1288;23650;-67
2023/09/07 10:39:05;;;;;;;4.10;2.70;;;;;;;37.34;24.40;101079.67;107846;1288;22048;-60
2023/09/07 10:41:42;;;;;;;4.10;2.10;;;;;;;37.03;24.35;101077.73;107970;1283;21995;-67
2023/09/07 10:44:10;;;;;;;6.00;2.40;;;;;;;36.65;24.42;101072.88;108023;1286;23602;-59
2023/09/07 10:46:36;;;;;;;3.40;2.20;;;;;;;36.24;24.39;101077.80;107979;1279;21998;-59
2023/09/07 10:49:01;;;;;;;4.00;2.30;;;;;;;35.91;24.52;101077.17;107764;1286;22034;-68
2023/09/07 10:51:27;;;;;;;5.90;2.50;;;;;;;35.78;24.70;101070.91;107973;1276;23647;-59
2023/09/07 10:53:55;;;;;;;4.10;1.90;;;;;;;35.82;24.98;101070.81;107770;1286;21991;-59
2023/09/07 10:56:24;;;;;;;4.60;2.30;;;;;;;36.03;25.26;101061.58;108043;1288;22001;-68
2023/09/07 10:58:51;;;;;;;3.60;2.20;;;;;;;36.47;25.08;101050.35;108004;1288;21993;-67
2023/09/07 11:01:16;;;;;;;3.60;2.10;;;;;;;36.94;24.76;101047.45;107799;1288;22173;-59
2023/09/07 11:03:42;;;;;;;4.40;2.20;;;;;;;37.37;24.60;101044.77;108009;1286;21992;-67
2023/09/07 11:06:11;;;;;;;5.50;2.00;;;;;;;37.53;23.93;101046.77;107876;1288;21989;-59
2023/09/07 11:08:36;;;;;;;3.30;1.90;;;;;;;37.37;24.03;101046.93;107978;1287;21989;-68
2023/09/07 11:11:02;;;;;;;3.80;1.90;;;;;;;37.16;24.29;101045.52;107963;1288;21994;-68
2023/09/07 11:13:28;;;;;;;3.60;2.40;;;;;;;37.00;24.26;101047.76;107968;1288;22005;-58